sensor_id;sensor_type;location;lat;lon;timestamp;pressure;altitude;pressure_sealevel;temperature;humidity
68179;BME280;54998;42.656;23.382;2023-01-26T00:02:27;95381.06;;;-2.67;76.68
68179;BME280;54998;42.656;23.382;2023-01-26T00:05:27;95374.78;;;-2.81;76.93
68179;BME280;54998;42.656;23.382;2023-01-26T00:08:21;95401.94;;;-2.65;76.98
68179;BME280;54998;42.656;23.382;2023-01-26T00:17:51;95388.72;;;-2.71;76.85
68179;BME280;54998;42.656;23.382;2023-01-26T00:20:35;95402.06;;;-2.69;76.76
68179;BME280;54998;42.656;23.382;2023-01-26T00:33:27;95363.84;;;-2.80;76.94
68179;BME280;54998;42.656;23.382;2023-01-26T00:35:53;95374.44;;;-2.70;76.80
68179;BME280;54998;42.656;23.382;2023-01-26T00:38:22;95368.78;;;-2.77;76.75
68179;BME280;54998;42.656;23.382;2023-01-26T00:40:53;95343.13;;;-2.86;76.40
68179;BME280;54998;42.656;23.382;2023-01-26T00:43:54;95340.50;;;-2.82;76.25
68179;BME280;54998;42.656;23.382;2023-01-26T00:46:47;95332.44;;;-2.93;76.00
68179;BME280;54998;42.656;23.382;2023-01-26T00:52:33;95345.41;;;-2.79;75.83
68179;BME280;54998;42.656;23.382;2023-01-26T00:55:10;95379.66;;;-2.76;75.49
68179;BME280;54998;42.656;23.382;2023-01-26T00:58:08;95344.44;;;-2.75;75.16
68179;BME280;54998;42.656;23.382;2023-01-26T01:01:20;95344.25;;;-2.69;74.76
68179;BME280;54998;42.656;23.382;2023-01-26T01:04:28;95332.19;;;-2.84;74.94
68179;BME280;54998;42.656;23.382;2023-01-26T01:07:40;95313.72;;;-2.83;74.45
68179;BME280;54998;42.656;23.382;2023-01-26T01:10:17;95336.88;;;-2.73;74.46
68179;BME280;54998;42.656;23.382;2023-01-26T01:12:53;95342.56;;;-2.68;74.19
68179;BME280;54998;42.656;23.382;2023-01-26T01:15:47;95333.50;;;-2.74;74.32
68179;BME280;54998;42.656;23.382;2023-01-26T01:18:30;95331.78;;;-2.72;73.96
68179;BME280;54998;42.656;23.382;2023-01-26T01:21:16;95309.97;;;-2.71;73.79
68179;BME280;54998;42.656;23.382;2023-01-26T01:24:03;95310.31;;;-2.55;73.55
68179;BME280;54998;42.656;23.382;2023-01-26T01:26:43;95311.50;;;-2.65;73.54
68179;BME280;54998;42.656;23.382;2023-01-26T01:29:14;95327.34;;;-2.63;73.36
68179;BME280;54998;42.656;23.382;2023-01-26T01:32:00;95317.25;;;-2.62;73.12
68179;BME280;54998;42.656;23.382;2023-01-26T01:34:34;95312.41;;;-2.68;73.58
68179;BME280;54998;42.656;23.382;2023-01-26T01:37:10;95328.88;;;-2.59;73.37
68179;BME280;54998;42.656;23.382;2023-01-26T01:39:46;95317.31;;;-2.65;73.17
68179;BME280;54998;42.656;23.382;2023-01-26T01:42:47;95322.47;;;-2.68;73.07
68179;BME280;54998;42.656;23.382;2023-01-26T01:48:05;95326.38;;;-2.59;72.63
68179;BME280;54998;42.656;23.382;2023-01-26T01:51:02;95310.56;;;-2.63;72.35
68179;BME280;54998;42.656;23.382;2023-01-26T01:53:56;95310.91;;;-2.74;72.39
68179;BME280;54998;42.656;23.382;2023-01-26T01:59:25;95333.63;;;-2.77;73.54
68179;BME280;54998;42.656;23.382;2023-01-26T02:04:56;95319.19;;;-2.70;73.28
68179;BME280;54998;42.656;23.382;2023-01-26T02:07:46;95316.00;;;-2.75;72.94
68179;BME280;54998;42.656;23.382;2023-01-26T02:10:26;95301.16;;;-2.83;74.00
68179;BME280;54998;42.656;23.382;2023-01-26T02:13:03;95303.97;;;-2.92;73.79
68179;BME280;54998;42.656;23.382;2023-01-26T02:15:38;95278.94;;;-2.95;73.90
68179;BME280;54998;42.656;23.382;2023-01-26T02:18:06;95294.50;;;-2.84;74.03
68179;BME280;54998;42.656;23.382;2023-01-26T02:20:49;95298.34;;;-2.74;73.85
68179;BME280;54998;42.656;23.382;2023-01-26T02:23:41;95285.97;;;-2.80;73.67
68179;BME280;54998;42.656;23.382;2023-01-26T02:26:38;95283.47;;;-2.80;73.58
68179;BME280;54998;42.656;23.382;2023-01-26T02:29:07;95250.28;;;-2.90;73.72
68179;BME280;54998;42.656;23.382;2023-01-26T02:31:33;95266.03;;;-2.84;74.22
68179;BME280;54998;42.656;23.382;2023-01-26T02:34:07;95277.59;;;-2.79;74.31
68179;BME280;54998;42.656;23.382;2023-01-26T02:36:42;95268.63;;;-2.86;74.44
68179;BME280;54998;42.656;23.382;2023-01-26T02:39:21;95249.19;;;-2.81;74.04
68179;BME280;54998;42.656;23.382;2023-01-26T02:42:09;95254.34;;;-2.85;74.06
68179;BME280;54998;42.656;23.382;2023-01-26T02:58:57;95226.34;;;-2.73;73.21
68179;BME280;54998;42.656;23.382;2023-01-26T03:05:34;95188.31;;;-2.89;73.06
68179;BME280;54998;42.656;23.382;2023-01-26T03:09:09;95224.44;;;-2.66;72.94
68179;BME280;54998;42.656;23.382;2023-01-26T03:11:18;95194.50;;;-2.99;73.66
68179;BME280;54998;42.656;23.382;2023-01-26T03:14:11;95225.31;;;-2.69;73.62
68179;BME280;54998;42.656;23.382;2023-01-26T03:16:52;95192.34;;;-2.83;73.75
68179;BME280;54998;42.656;23.382;2023-01-26T03:19:20;95216.97;;;-2.70;73.85
68179;BME280;54998;42.656;23.382;2023-01-26T03:22:05;95193.03;;;-2.80;73.89
68179;BME280;54998;42.656;23.382;2023-01-26T03:25:02;95194.47;;;-2.73;73.83
68179;BME280;54998;42.656;23.382;2023-01-26T03:27:48;95202.59;;;-2.64;73.85
68179;BME280;54998;42.656;23.382;2023-01-26T03:30:18;95193.59;;;-2.72;73.83
68179;BME280;54998;42.656;23.382;2023-01-26T03:32:46;95187.88;;;-2.75;74.02
68179;BME280;54998;42.656;23.382;2023-01-26T03:35:11;95186.63;;;-2.63;73.85
68179;BME280;54998;42.656;23.382;2023-01-26T03:37:43;95185.81;;;-2.64;73.86
68179;BME280;54998;42.656;23.382;2023-01-26T03:40:10;95192.41;;;-2.61;73.66
68179;BME280;54998;42.656;23.382;2023-01-26T03:42:55;95187.72;;;-2.71;74.03
68179;BME280;54998;42.656;23.382;2023-01-26T03:45:39;95191.09;;;-2.72;73.68
68179;BME280;54998;42.656;23.382;2023-01-26T03:48:23;95177.56;;;-2.67;73.75
68179;BME280;54998;42.656;23.382;2023-01-26T03:51:08;95171.19;;;-2.78;73.57
68179;BME280;54998;42.656;23.382;2023-01-26T03:53:55;95182.78;;;-2.74;74.09
68179;BME280;54998;42.656;23.382;2023-01-26T03:56:41;95169.25;;;-2.70;74.02
68179;BME280;54998;42.656;23.382;2023-01-26T03:59:10;95177.81;;;-2.75;74.02
68179;BME280;54998;42.656;23.382;2023-01-26T04:01:49;95174.78;;;-2.85;74.26
68179;BME280;54998;42.656;23.382;2023-01-26T04:04:36;95173.44;;;-2.95;74.72
68179;BME280;54998;42.656;23.382;2023-01-26T04:07:19;95177.06;;;-2.77;74.38
68179;BME280;54998;42.656;23.382;2023-01-26T04:10:04;95165.41;;;-2.80;74.36
68179;BME280;54998;42.656;23.382;2023-01-26T04:12:53;95146.31;;;-2.84;74.29
68179;BME280;54998;42.656;23.382;2023-01-26T04:15:46;95168.91;;;-2.84;74.29
68179;BME280;54998;42.656;23.382;2023-01-26T04:18:30;95150.25;;;-2.77;74.17
68179;BME280;54998;42.656;23.382;2023-01-26T04:21:19;95156.25;;;-2.81;74.43
68179;BME280;54998;42.656;23.382;2023-01-26T04:27:02;95134.34;;;-2.77;74.16
68179;BME280;54998;42.656;23.382;2023-01-26T04:30:00;95141.00;;;-2.76;74.41
68179;BME280;54998;42.656;23.382;2023-01-26T04:32:36;95136.19;;;-2.82;74.66
68179;BME280;54998;42.656;23.382;2023-01-26T04:35:03;95132.06;;;-2.83;74.38
68179;BME280;54998;42.656;23.382;2023-01-26T04:37:35;95132.88;;;-2.83;74.41
68179;BME280;54998;42.656;23.382;2023-01-26T04:40:07;95136.16;;;-2.81;74.13
68179;BME280;54998;42.656;23.382;2023-01-26T04:42:43;95128.56;;;-2.79;73.48
68179;BME280;54998;42.656;23.382;2023-01-26T04:45:29;95136.03;;;-2.78;74.04
68179;BME280;54998;42.656;23.382;2023-01-26T04:47:58;95124.59;;;-2.86;73.83
68179;BME280;54998;42.656;23.382;2023-01-26T04:50:32;95108.16;;;-2.95;73.99
68179;BME280;54998;42.656;23.382;2023-01-26T04:53:01;95128.22;;;-2.70;73.91
68179;BME280;54998;42.656;23.382;2023-01-26T04:55:26;95140.06;;;-2.74;73.64
68179;BME280;54998;42.656;23.382;2023-01-26T04:57:54;95125.97;;;-2.78;73.60
68179;BME280;54998;42.656;23.382;2023-01-26T05:00:21;95126.66;;;-2.73;73.90
68179;BME280;54998;42.656;23.382;2023-01-26T05:02:47;95116.78;;;-2.77;73.80
68179;BME280;54998;42.656;23.382;2023-01-26T05:05:12;95114.84;;;-2.71;73.56
68179;BME280;54998;42.656;23.382;2023-01-26T05:10:48;95127.91;;;-2.61;73.59
68179;BME280;54998;42.656;23.382;2023-01-26T05:13:18;95106.88;;;-2.58;72.88
68179;BME280;54998;42.656;23.382;2023-01-26T05:15:49;95125.22;;;-2.56;72.66
68179;BME280;54998;42.656;23.382;2023-01-26T05:21:09;95128.28;;;-2.48;72.56
68179;BME280;54998;42.656;23.382;2023-01-26T05:23:58;95119.44;;;-2.58;72.24
68179;BME280;54998;42.656;23.382;2023-01-26T05:26:31;95124.25;;;-2.52;72.14
68179;BME280;54998;42.656;23.382;2023-01-26T05:28:56;95111.00;;;-2.56;72.18
68179;BME280;54998;42.656;23.382;2023-01-26T05:31:22;95116.44;;;-2.44;72.13
68179;BME280;54998;42.656;23.382;2023-01-26T05:33:50;95119.97;;;-2.50;72.18
68179;BME280;54998;42.656;23.382;2023-01-26T05:36:25;95111.34;;;-2.43;72.18
68179;BME280;54998;42.656;23.382;2023-01-26T05:38:58;95101.28;;;-2.43;71.92
68179;BME280;54998;42.656;23.382;2023-01-26T05:41:24;95099.78;;;-2.47;71.85
68179;BME280;54998;42.656;23.382;2023-01-26T05:43:49;95113.75;;;-2.40;71.82
68179;BME280;54998;42.656;23.382;2023-01-26T05:46:20;95116.38;;;-2.43;72.15
68179;BME280;54998;42.656;23.382;2023-01-26T05:48:45;95105.03;;;-2.53;72.02
68179;BME280;54998;42.656;23.382;2023-01-26T05:54:16;95098.69;;;-2.40;71.95
68179;BME280;54998;42.656;23.382;2023-01-26T05:56:41;95106.75;;;-2.32;72.03
68179;BME280;54998;42.656;23.382;2023-01-26T05:59:07;95116.44;;;-2.21;71.78
68179;BME280;54998;42.656;23.382;2023-01-26T06:01:35;95113.00;;;-2.42;72.26
68179;BME280;54998;42.656;23.382;2023-01-26T06:04:01;95095.66;;;-2.50;71.89
68179;BME280;54998;42.656;23.382;2023-01-26T06:06:26;95100.78;;;-2.51;72.12
68179;BME280;54998;42.656;23.382;2023-01-26T06:09:00;95096.72;;;-2.55;72.33
68179;BME280;54998;42.656;23.382;2023-01-26T06:11:25;95101.81;;;-2.35;72.48
68179;BME280;54998;42.656;23.382;2023-01-26T06:13:59;95096.63;;;-2.30;72.21
68179;BME280;54998;42.656;23.382;2023-01-26T06:16:27;95110.81;;;-2.28;71.86
68179;BME280;54998;42.656;23.382;2023-01-26T06:19:11;95109.31;;;-2.33;71.85
68179;BME280;54998;42.656;23.382;2023-01-26T06:21:43;95100.00;;;-2.30;72.11
68179;BME280;54998;42.656;23.382;2023-01-26T06:24:11;95106.59;;;-2.27;71.69
68179;BME280;54998;42.656;23.382;2023-01-26T06:26:36;95103.19;;;-2.26;72.25
68179;BME280;54998;42.656;23.382;2023-01-26T06:29:02;95095.38;;;-2.18;72.26
68179;BME280;54998;42.656;23.382;2023-01-26T06:31:28;95092.91;;;-2.20;72.09
68179;BME280;54998;42.656;23.382;2023-01-26T06:33:54;95086.94;;;-2.17;71.86
68179;BME280;54998;42.656;23.382;2023-01-26T06:36:20;95082.31;;;-2.06;71.96
68179;BME280;54998;42.656;23.382;2023-01-26T06:38:47;95083.97;;;-2.05;72.16
68179;BME280;54998;42.656;23.382;2023-01-26T06:41:12;95084.72;;;-2.03;71.69
68179;BME280;54998;42.656;23.382;2023-01-26T06:43:38;95085.44;;;-1.99;71.12
68179;BME280;54998;42.656;23.382;2023-01-26T06:46:04;95085.75;;;-1.87;71.50
68179;BME280;54998;42.656;23.382;2023-01-26T06:48:32;95089.94;;;-1.86;71.19
68179;BME280;54998;42.656;23.382;2023-01-26T06:53:43;95086.94;;;-2.17;71.86
68179;BME280;54998;42.656;23.382;2023-01-26T06:56:11;95089.44;;;-1.95;71.42
68179;BME280;54998;42.656;23.382;2023-01-26T06:58:37;95098.06;;;-2.01;71.16
68179;BME280;54998;42.656;23.382;2023-01-26T07:01:03;95092.28;;;-2.03;71.19
68179;BME280;54998;42.656;23.382;2023-01-26T07:03:28;95088.09;;;-2.04;71.37
68179;BME280;54998;42.656;23.382;2023-01-26T07:05:54;95083.75;;;-1.99;71.48
68179;BME280;54998;42.656;23.382;2023-01-26T07:08:20;95085.13;;;-1.92;71.39
68179;BME280;54998;42.656;23.382;2023-01-26T07:10:45;95078.94;;;-2.05;71.50
68179;BME280;54998;42.656;23.382;2023-01-26T07:13:11;95076.28;;;-2.02;71.99
68179;BME280;54998;42.656;23.382;2023-01-26T07:15:36;95062.53;;;-1.93;71.65
68179;BME280;54998;42.656;23.382;2023-01-26T07:18:01;95066.53;;;-1.88;71.38
68179;BME280;54998;42.656;23.382;2023-01-26T07:20:27;95070.66;;;-1.87;71.66
68179;BME280;54998;42.656;23.382;2023-01-26T07:22:52;95056.84;;;-1.76;71.61
68179;BME280;54998;42.656;23.382;2023-01-26T07:25:18;95066.91;;;-1.76;71.33
68179;BME280;54998;42.656;23.382;2023-01-26T07:27:44;95069.75;;;-1.84;71.51
68179;BME280;54998;42.656;23.382;2023-01-26T07:30:11;95065.81;;;-1.91;71.60
68179;BME280;54998;42.656;23.382;2023-01-26T07:32:38;95057.59;;;-1.95;71.73
68179;BME280;54998;42.656;23.382;2023-01-26T07:35:04;95070.00;;;-1.90;72.04
68179;BME280;54998;42.656;23.382;2023-01-26T07:37:30;95073.94;;;-1.84;72.25
68179;BME280;54998;42.656;23.382;2023-01-26T07:39:55;95047.09;;;-1.84;72.23
68179;BME280;54998;42.656;23.382;2023-01-26T07:42:21;95043.75;;;-1.84;71.37
68179;BME280;54998;42.656;23.382;2023-01-26T07:44:47;95048.91;;;-1.88;71.98
68179;BME280;54998;42.656;23.382;2023-01-26T07:47:12;95050.88;;;-1.74;71.06
68179;BME280;54998;42.656;23.382;2023-01-26T07:49:41;95047.59;;;-1.76;70.86
68179;BME280;54998;42.656;23.382;2023-01-26T07:52:06;95056.00;;;-1.75;70.87
68179;BME280;54998;42.656;23.382;2023-01-26T07:54:33;95049.81;;;-1.68;70.57
68179;BME280;54998;42.656;23.382;2023-01-26T07:56:59;95048.50;;;-1.56;70.73
68179;BME280;54998;42.656;23.382;2023-01-26T07:59:24;95053.44;;;-1.53;70.68
68179;BME280;54998;42.656;23.382;2023-01-26T08:01:50;95059.31;;;-1.54;70.38
68179;BME280;54998;42.656;23.382;2023-01-26T08:04:16;95046.06;;;-1.58;70.56
68179;BME280;54998;42.656;23.382;2023-01-26T08:06:41;95027.69;;;-1.60;70.47
68179;BME280;54998;42.656;23.382;2023-01-26T08:09:07;95036.38;;;-1.47;69.87
68179;BME280;54998;42.656;23.382;2023-01-26T08:11:32;95033.03;;;-1.47;69.62
68179;BME280;54998;42.656;23.382;2023-01-26T08:13:58;95024.47;;;-1.43;69.96
68179;BME280;54998;42.656;23.382;2023-01-26T08:16:23;95025.59;;;-1.30;69.20
68179;BME280;54998;42.656;23.382;2023-01-26T08:18:49;95028.47;;;-1.39;68.89
68179;BME280;54998;42.656;23.382;2023-01-26T08:21:16;95025.28;;;-1.42;69.01
68179;BME280;54998;42.656;23.382;2023-01-26T08:23:42;95024.34;;;-1.40;69.12
68179;BME280;54998;42.656;23.382;2023-01-26T08:26:10;95027.66;;;-1.39;68.73
68179;BME280;54998;42.656;23.382;2023-01-26T08:28:36;95032.59;;;-1.36;68.24
68179;BME280;54998;42.656;23.382;2023-01-26T08:31:09;95029.94;;;-1.33;68.75
68179;BME280;54998;42.656;23.382;2023-01-26T08:33:39;95017.97;;;-1.28;68.20
68179;BME280;54998;42.656;23.382;2023-01-26T08:36:08;95017.44;;;-1.16;67.77
68179;BME280;54998;42.656;23.382;2023-01-26T08:38:35;95019.09;;;-1.15;67.33
68179;BME280;54998;42.656;23.382;2023-01-26T08:41:01;95009.84;;;-1.14;67.50
68179;BME280;54998;42.656;23.382;2023-01-26T08:43:27;95011.41;;;-1.12;67.02
68179;BME280;54998;42.656;23.382;2023-01-26T08:45:52;95007.63;;;-1.22;67.46
68179;BME280;54998;42.656;23.382;2023-01-26T08:48:18;95014.13;;;-1.16;67.63
68179;BME280;54998;42.656;23.382;2023-01-26T08:50:43;95017.69;;;-1.01;66.89
68179;BME280;54998;42.656;23.382;2023-01-26T08:53:09;95016.03;;;-1.02;66.78
68179;BME280;54998;42.656;23.382;2023-01-26T08:55:35;95018.06;;;-1.11;67.10
68179;BME280;54998;42.656;23.382;2023-01-26T08:58:01;95012.16;;;-1.10;66.85
68179;BME280;54998;42.656;23.382;2023-01-26T09:00:27;95007.13;;;-1.10;67.89
68179;BME280;54998;42.656;23.382;2023-01-26T09:03:00;95006.00;;;-1.23;67.66
68179;BME280;54998;42.656;23.382;2023-01-26T09:05:26;95011.31;;;-1.29;68.37
68179;BME280;54998;42.656;23.382;2023-01-26T09:07:51;95012.13;;;-1.29;68.14
68179;BME280;54998;42.656;23.382;2023-01-26T09:10:17;95013.94;;;-1.12;67.14
68179;BME280;54998;42.656;23.382;2023-01-26T09:12:42;95017.75;;;-1.03;66.67
68179;BME280;54998;42.656;23.382;2023-01-26T09:15:08;95012.91;;;-1.08;66.33
68179;BME280;54998;42.656;23.382;2023-01-26T09:17:35;94995.81;;;-1.01;66.32
68179;BME280;54998;42.656;23.382;2023-01-26T09:20:01;94998.91;;;-0.94;66.08
68179;BME280;54998;42.656;23.382;2023-01-26T09:22:27;94988.03;;;-1.15;66.67
68179;BME280;54998;42.656;23.382;2023-01-26T09:24:53;94991.06;;;-1.07;67.14
68179;BME280;54998;42.656;23.382;2023-01-26T09:27:18;94996.28;;;-1.12;66.59
68179;BME280;54998;42.656;23.382;2023-01-26T09:29:43;94983.63;;;-0.91;66.92
68179;BME280;54998;42.656;23.382;2023-01-26T09:32:09;94978.19;;;-1.01;66.70
68179;BME280;54998;42.656;23.382;2023-01-26T09:34:34;94969.81;;;-0.83;66.23
68179;BME280;54998;42.656;23.382;2023-01-26T09:36:59;94970.91;;;-0.88;66.08
68179;BME280;54998;42.656;23.382;2023-01-26T09:39:25;94971.44;;;-1.00;66.84
68179;BME280;54998;42.656;23.382;2023-01-26T09:50:12;94972.22;;;-0.79;66.26
68179;BME280;54998;42.656;23.382;2023-01-26T09:52:55;94964.91;;;-0.67;66.54
68179;BME280;54998;42.656;23.382;2023-01-26T09:55:22;94953.34;;;-0.71;65.77
68179;BME280;54998;42.656;23.382;2023-01-26T09:58:12;94939.50;;;-0.81;66.30
68179;BME280;54998;42.656;23.382;2023-01-26T10:00:54;94940.66;;;-0.69;66.13
68179;BME280;54998;42.656;23.382;2023-01-26T10:03:25;94952.78;;;-0.58;65.65
68179;BME280;54998;42.656;23.382;2023-01-26T10:08:23;94947.09;;;-0.45;65.29
68179;BME280;54998;42.656;23.382;2023-01-26T10:11:00;94947.31;;;-0.49;65.24
68179;BME280;54998;42.656;23.382;2023-01-26T10:13:28;94952.19;;;-0.46;65.51
68179;BME280;54998;42.656;23.382;2023-01-26T10:16:02;94954.34;;;-0.56;65.25
68179;BME280;54998;42.656;23.382;2023-01-26T10:18:32;94951.81;;;-0.56;65.39
68179;BME280;54998;42.656;23.382;2023-01-26T10:21:02;94923.78;;;-0.67;65.51
68179;BME280;54998;42.656;23.382;2023-01-26T10:23:30;94921.91;;;-0.64;65.71
68179;BME280;54998;42.656;23.382;2023-01-26T10:26:06;94912.88;;;-0.50;65.70
68179;BME280;54998;42.656;23.382;2023-01-26T10:28:35;94906.16;;;-0.50;65.52
68179;BME280;54998;42.656;23.382;2023-01-26T10:31:02;94901.03;;;-0.48;65.44
68179;BME280;54998;42.656;23.382;2023-01-26T10:33:31;94901.31;;;-0.54;65.58
68179;BME280;54998;42.656;23.382;2023-01-26T10:35:59;94894.13;;;-0.62;65.91
68179;BME280;54998;42.656;23.382;2023-01-26T10:38:45;94883.44;;;-0.67;66.26
68179;BME280;54998;42.656;23.382;2023-01-26T10:46:36;94866.19;;;-0.57;65.74
68179;BME280;54998;42.656;23.382;2023-01-26T10:51:35;94851.34;;;-0.46;65.35
68179;BME280;54998;42.656;23.382;2023-01-26T10:54:24;94845.44;;;-0.45;65.67
68179;BME280;54998;42.656;23.382;2023-01-26T10:57:28;94834.66;;;-0.31;65.40
68179;BME280;54998;42.656;23.382;2023-01-26T10:59:58;94828.00;;;-0.32;65.13
68179;BME280;54998;42.656;23.382;2023-01-26T11:02:29;94819.91;;;-0.22;65.23
68179;BME280;54998;42.656;23.382;2023-01-26T11:10:15;94811.47;;;-0.05;64.52
68179;BME280;54998;42.656;23.382;2023-01-26T11:12:41;94805.28;;;-0.15;64.30
68179;BME280;54998;42.656;23.382;2023-01-26T11:15:19;94805.94;;;-0.29;65.65
68179;BME280;54998;42.656;23.382;2023-01-26T11:17:59;94799.09;;;-0.09;64.93
68179;BME280;54998;42.656;23.382;2023-01-26T11:23:32;94788.16;;;-0.26;65.27
68179;BME280;54998;42.656;23.382;2023-01-26T11:26:16;94774.94;;;-0.31;65.50
68179;BME280;54998;42.656;23.382;2023-01-26T11:31:38;94760.94;;;-0.19;65.46
68179;BME280;54998;42.656;23.382;2023-01-26T11:34:39;94762.94;;;-0.26;65.70
68179;BME280;54998;42.656;23.382;2023-01-26T11:50:56;94730.91;;;-0.08;65.75
68179;BME280;54998;42.656;23.382;2023-01-26T11:58:45;94751.69;;;-0.36;66.61
68179;BME280;54998;42.656;23.382;2023-01-26T12:01:37;94743.63;;;-0.60;67.59
68179;BME280;54998;42.656;23.382;2023-01-26T12:04:05;94740.88;;;-0.55;67.68
68179;BME280;54998;42.656;23.382;2023-01-26T12:06:42;94722.53;;;-0.42;67.57
68179;BME280;54998;42.656;23.382;2023-01-26T12:09:20;94727.41;;;-0.21;66.78
68179;BME280;54998;42.656;23.382;2023-01-26T12:12:08;94736.00;;;-0.58;67.71
68179;BME280;54998;42.656;23.382;2023-01-26T12:14:46;94725.72;;;-0.38;67.91
68179;BME280;54998;42.656;23.382;2023-01-26T12:23:05;94713.13;;;-0.38;67.69
68179;BME280;54998;42.656;23.382;2023-01-26T12:25:45;94683.28;;;-0.30;67.88
68179;BME280;54998;42.656;23.382;2023-01-26T12:28:23;94686.69;;;-0.31;67.38
68179;BME280;54998;42.656;23.382;2023-01-26T12:33:40;94688.66;;;-0.20;67.22
68179;BME280;54998;42.656;23.382;2023-01-26T12:44:43;94671.09;;;-0.22;67.82
68179;BME280;54998;42.656;23.382;2023-01-26T12:50:04;94656.84;;;-0.23;68.21
68179;BME280;54998;42.656;23.382;2023-01-26T12:55:19;94671.84;;;-0.19;68.41
68179;BME280;54998;42.656;23.382;2023-01-26T12:57:53;94669.38;;;-0.21;68.01
68179;BME280;54998;42.656;23.382;2023-01-26T13:00:23;94669.22;;;-0.34;68.98
68179;BME280;54998;42.656;23.382;2023-01-26T13:03:00;94664.31;;;-0.37;69.14
68179;BME280;54998;42.656;23.382;2023-01-26T13:05:31;94660.72;;;-0.49;69.80
68179;BME280;54998;42.656;23.382;2023-01-26T13:10:59;94658.03;;;-0.46;70.25
68179;BME280;54998;42.656;23.382;2023-01-26T13:13:30;94666.56;;;-0.48;71.20
68179;BME280;54998;42.656;23.382;2023-01-26T13:18:56;94654.19;;;-0.53;70.96
68179;BME280;54998;42.656;23.382;2023-01-26T13:26:46;94656.88;;;-0.56;71.38
68179;BME280;54998;42.656;23.382;2023-01-26T13:31:50;94648.81;;;-0.63;71.26
68179;BME280;54998;42.656;23.382;2023-01-26T13:34:21;94643.72;;;-0.78;71.97
68179;BME280;54998;42.656;23.382;2023-01-26T13:36:50;94647.59;;;-0.71;72.26
68179;BME280;54998;42.656;23.382;2023-01-26T13:39:37;94648.09;;;-0.65;71.95
68179;BME280;54998;42.656;23.382;2023-01-26T13:42:26;94639.41;;;-0.76;72.14
68179;BME280;54998;42.656;23.382;2023-01-26T13:44:59;94636.75;;;-0.73;72.27
68179;BME280;54998;42.656;23.382;2023-01-26T13:47:32;94637.06;;;-0.79;72.06
68179;BME280;54998;42.656;23.382;2023-01-26T13:49:59;94625.63;;;-0.69;72.15
68179;BME280;54998;42.656;23.382;2023-01-26T13:52:26;94629.47;;;-0.62;71.76
68179;BME280;54998;42.656;23.382;2023-01-26T13:54:53;94637.03;;;-0.62;71.39
68179;BME280;54998;42.656;23.382;2023-01-26T13:57:26;94630.88;;;-0.74;72.00
68179;BME280;54998;42.656;23.382;2023-01-26T13:59:55;94611.34;;;-0.53;71.58
68179;BME280;54998;42.656;23.382;2023-01-26T14:04:52;94601.06;;;-0.66;71.75
68179;BME280;54998;42.656;23.382;2023-01-26T14:07:41;94598.44;;;-0.47;71.03
68179;BME280;54998;42.656;23.382;2023-01-26T14:10:07;94591.03;;;-0.50;70.88
68179;BME280;54998;42.656;23.382;2023-01-26T14:12:42;94594.38;;;-0.49;70.54
68179;BME280;54998;42.656;23.382;2023-01-26T14:15:21;94592.75;;;-0.34;70.28
68179;BME280;54998;42.656;23.382;2023-01-26T14:29:59;94586.38;;;-0.42;69.92
68179;BME280;54998;42.656;23.382;2023-01-26T14:32:25;94578.75;;;-0.40;70.10
68179;BME280;54998;42.656;23.382;2023-01-26T14:34:59;94578.34;;;-0.32;70.07
68179;BME280;54998;42.656;23.382;2023-01-26T14:37:25;94581.81;;;-0.35;69.40
68179;BME280;54998;42.656;23.382;2023-01-26T14:42:46;94576.69;;;-0.17;68.35
68179;BME280;54998;42.656;23.382;2023-01-26T14:45:12;94572.97;;;-0.10;68.62
68179;BME280;54998;42.656;23.382;2023-01-26T14:47:39;94572.78;;;-0.07;67.97
68179;BME280;54998;42.656;23.382;2023-01-26T14:50:13;94563.94;;;-0.14;68.16
68179;BME280;54998;42.656;23.382;2023-01-26T14:52:43;94574.19;;;-0.17;68.22
68179;BME280;54998;42.656;23.382;2023-01-26T14:55:17;94571.34;;;0.05;67.52
68179;BME280;54998;42.656;23.382;2023-01-26T14:57:45;94564.09;;;-0.02;67.76
68179;BME280;54998;42.656;23.382;2023-01-26T15:00:35;94564.59;;;-0.11;68.27
68179;BME280;54998;42.656;23.382;2023-01-26T15:06:02;94574.06;;;0.16;67.56
68179;BME280;54998;42.656;23.382;2023-01-26T15:08:31;94566.50;;;0.16;67.23
68179;BME280;54998;42.656;23.382;2023-01-26T15:10:58;94563.41;;;0.11;67.43
68179;BME280;54998;42.656;23.382;2023-01-26T15:13:44;94564.03;;;0.00;67.76
68179;BME280;54998;42.656;23.382;2023-01-26T15:16:18;94566.53;;;0.00;67.43
68179;BME280;54998;42.656;23.382;2023-01-26T15:18:56;94556.44;;;0.00;67.36
68179;BME280;54998;42.656;23.382;2023-01-26T15:21:33;94553.56;;;0.06;68.15
68179;BME280;54998;42.656;23.382;2023-01-26T15:24:14;94537.34;;;-0.04;70.24
68179;BME280;54998;42.656;23.382;2023-01-26T15:26:41;94539.03;;;-0.05;71.87
68179;BME280;54998;42.656;23.382;2023-01-26T15:29:36;94517.41;;;-0.25;73.43
68179;BME280;54998;42.656;23.382;2023-01-26T15:37:46;94537.69;;;-0.42;76.93
68179;BME280;54998;42.656;23.382;2023-01-26T15:40:12;94532.56;;;-0.56;77.94
68179;BME280;54998;42.656;23.382;2023-01-26T15:42:37;94520.75;;;-0.72;78.44
68179;BME280;54998;42.656;23.382;2023-01-26T15:45:18;94506.44;;;-0.55;78.23
68179;BME280;54998;42.656;23.382;2023-01-26T15:47:44;94508.00;;;-0.53;78.09
68179;BME280;54998;42.656;23.382;2023-01-26T15:50:10;94502.06;;;-0.52;78.33
68179;BME280;54998;42.656;23.382;2023-01-26T15:52:35;94505.88;;;-0.45;78.67
68179;BME280;54998;42.656;23.382;2023-01-26T15:55:01;94494.50;;;-0.52;78.31
68179;BME280;54998;42.656;23.382;2023-01-26T15:57:26;94496.09;;;-0.83;79.66
68179;BME280;54998;42.656;23.382;2023-01-26T15:59:51;94488.41;;;-0.64;79.57
68179;BME280;54998;42.656;23.382;2023-01-26T16:02:19;94485.88;;;-0.64;79.40
68179;BME280;54998;42.656;23.382;2023-01-26T16:04:45;94483.78;;;-0.71;79.92
68179;BME280;54998;42.656;23.382;2023-01-26T16:07:16;94479.38;;;-0.68;80.36
68179;BME280;54998;42.656;23.382;2023-01-26T16:09:42;94487.44;;;-0.77;80.43
68179;BME280;54998;42.656;23.382;2023-01-26T16:12:13;94490.38;;;-0.85;80.98
68179;BME280;54998;42.656;23.382;2023-01-26T16:14:39;94487.00;;;-0.85;81.45
68179;BME280;54998;42.656;23.382;2023-01-26T16:17:16;94478.81;;;-0.89;81.73